Aérodrome :
LOGIN :

S'inscrire | Disclaimer

   EN    FR    IT 

 










Légende :    VFR   VFR Marginal   IFR   IFR Intensif   IFR Très Intensif
Visi : 
Plafond : 
>= 8 km
>= 3000ft
5 à 8 km
1000 à 3000 ft
1500m à 5 km
500 à 1000 ft
800 à 1500m
200 à 500 ft
< 800m
< 200 ft
Symboles :   Orages  Brouillard  Fortes neiges  Fortes précipitations  Vent > 20 kt
SIGMETs :   Divers  Orages  Givrage  Turbulence  Onde Orograph.  Cendres Volcan.






- Altitude de l'aérodrome : 1234 ft
- Code IATA : LUX


ELLX - Luxembourg Findel

DERNIER METAR :
  • 131620Z 21009KT 140V270 CAVOK 30/13 Q1014 NOSIG

METARs EXPIRÉS :
  • 131550Z 21009KT 160V260 CAVOK 29/14 Q1014 NOSIG
  • 131520Z 25011KT 200V280 CAVOK 29/14 Q1014 NOSIG
  • 131450Z 22007KT 160V280 CAVOK 28/14 Q1014 NOSIG
  • 131420Z 24009KT 190V280 CAVOK 28/14 Q1015 NOSIG
  • 131350Z 24010KT 170V270 CAVOK 28/14 Q1015 NOSIG

TAF TAF ELLX
Valide du 13 à 12h jusqu'au 14 à 18h UTC


131100Z 1312/1418 21007KT CAVOK
TEMPO 1312/1418 -SHRA SCT040TCU
PROB30
TEMPO 1314/1319 5000 TSRA SCT015 SCT040CB
ATIS : +352 4798 27300
Météo : +352 4798 27010 / 27050



MET'MAP, la Météo Aéronautique d'un coup d'oeil ! - Copyright ORBIFLY Décembre 2007 - Disclaimer

ORBIFLY MET'MAP TEAM :

Programmation & Développement : Alexandra Zaïnal
Sur une idée originale de : Baudouin d'Aumeries
Assistance à la programmation : Marc-Olivier Méhu
Soutien technique & logistique : Manuel Goepfert

Contact : metmap@orbifly.com




SOURCES & CREDITS :

   NOAA